LFAT/LTQ METAR and TAF weather

Enter ICAO airport designator
Station Type Date Time Source
LFAT METAR 2021/03/08 11:30 UTC NOAA

LFAT 081130Z AUTO VRB02KT CAVOK 08/M03 Q1024 NOSIG


Station Type Date Time Source
LFAT Decoded METAR 2021/03/08 11:30 UTC NOAA

Le Touquet, France (LFAT) 50-31N 001-37E 14M
Mar 08, 2021 - 06:30 AM EST / 2021.03.08 1130 UTC
Wind: Variable at 2 MPH (2 KT):0
Visibility: greater than 7 mile(s):0
Temperature: 46 F (8 C)
Dew Point: 26 F (-3 C)
Relative Humidity: 45%
Pressure (altimeter): 30.24 in. Hg (1024 hPa)
ob: LFAT 081130Z AUTO VRB02KT CAVOK 08/M03 Q1024 NOSIG
cycle: 11

Station Type Date Time Source
LFAT TAF 2018/07/14 09:21 UTC NOAA

TAF TAF LFAT 140800Z 1409/1421 09004KT 8000 NSC
BECMG 1409/1411 30010KT

Example: see airport list